sensor_id;sensor_type;location;lat;lon;timestamp;P1;durP1;ratioP1;P2;durP2;ratioP2
54263;SDS011;40178;53.042;6.406;2022-09-12T00:00:43;12.45;;;3.15;;
54263;SDS011;40178;53.042;6.406;2022-09-12T00:03:08;10.65;;;2.70;;
54263;SDS011;40178;53.042;6.406;2022-09-12T00:05:39;16.02;;;3.58;;
54263;SDS011;40178;53.042;6.406;2022-09-12T00:08:08;54.97;;;5.40;;
54263;SDS011;40178;53.042;6.406;2022-09-12T00:10:38;5.80;;;3.78;;
54263;SDS011;40178;53.042;6.406;2022-09-12T00:13:06;4.78;;;2.90;;
54263;SDS011;40178;53.042;6.406;2022-09-12T00:15:36;5.10;;;3.20;;
54263;SDS011;40178;53.042;6.406;2022-09-12T00:18:03;4.93;;;3.10;;
54263;SDS011;40178;53.042;6.406;2022-09-12T00:20:28;4.80;;;2.83;;
54263;SDS011;40178;53.042;6.406;2022-09-12T00:22:54;6.20;;;3.03;;
54263;SDS011;40178;53.042;6.406;2022-09-12T00:25:20;5.00;;;3.20;;
54263;SDS011;40178;53.042;6.406;2022-09-12T00:27:45;5.57;;;3.08;;
54263;SDS011;40178;53.042;6.406;2022-09-12T00:30:11;5.05;;;3.35;;
54263;SDS011;40178;53.042;6.406;2022-09-12T00:32:36;5.68;;;3.35;;
54263;SDS011;40178;53.042;6.406;2022-09-12T00:35:02;5.43;;;3.22;;
54263;SDS011;40178;53.042;6.406;2022-09-12T00:37:28;6.93;;;2.78;;
54263;SDS011;40178;53.042;6.406;2022-09-12T00:39:53;7.05;;;3.28;;
54263;SDS011;40178;53.042;6.406;2022-09-12T00:42:19;4.97;;;2.58;;
54263;SDS011;40178;53.042;6.406;2022-09-12T00:44:49;5.15;;;3.03;;
54263;SDS011;40178;53.042;6.406;2022-09-12T00:47:49;7.30;;;4.78;;
54263;SDS011;40178;53.042;6.406;2022-09-12T00:50:08;16.42;;;5.60;;
54263;SDS011;40178;53.042;6.406;2022-09-12T00:52:42;25.08;;;5.55;;
54263;SDS011;40178;53.042;6.406;2022-09-12T00:55:19;26.83;;;4.85;;
54263;SDS011;40178;53.042;6.406;2022-09-12T00:57:55;12.15;;;3.95;;
54263;SDS011;40178;53.042;6.406;2022-09-12T01:00:24;5.70;;;3.38;;
54263;SDS011;40178;53.042;6.406;2022-09-12T01:02:56;7.72;;;3.65;;
54263;SDS011;40178;53.042;6.406;2022-09-12T01:05:26;6.32;;;4.00;;
54263;SDS011;40178;53.042;6.406;2022-09-12T01:07:53;6.72;;;3.72;;
54263;SDS011;40178;53.042;6.406;2022-09-12T01:10:21;5.50;;;3.35;;
54263;SDS011;40178;53.042;6.406;2022-09-12T01:12:47;6.18;;;3.80;;
54263;SDS011;40178;53.042;6.406;2022-09-12T01:15:13;7.70;;;3.90;;
54263;SDS011;40178;53.042;6.406;2022-09-12T01:17:42;7.65;;;4.95;;
54263;SDS011;40178;53.042;6.406;2022-09-12T01:25:37;11.93;;;7.38;;
54263;SDS011;40178;53.042;6.406;2022-09-12T01:31:00;12.50;;;8.18;;
54263;SDS011;40178;53.042;6.406;2022-09-12T01:33:38;12.50;;;8.57;;
54263;SDS011;40178;53.042;6.406;2022-09-12T01:39:39;12.23;;;9.20;;
54263;SDS011;40178;53.042;6.406;2022-09-12T01:42:23;13.60;;;9.13;;
54263;SDS011;40178;53.042;6.406;2022-09-12T01:45:02;10.65;;;6.72;;
54263;SDS011;40178;53.042;6.406;2022-09-12T01:47:44;10.63;;;6.30;;
54263;SDS011;40178;53.042;6.406;2022-09-12T01:50:21;23.17;;;7.63;;
54263;SDS011;40178;53.042;6.406;2022-09-12T01:53:02;157.63;;;15.65;;
54263;SDS011;40178;53.042;6.406;2022-09-12T01:58:11;16.13;;;6.70;;
54263;SDS011;40178;53.042;6.406;2022-09-12T02:00:47;8.00;;;5.85;;
54263;SDS011;40178;53.042;6.406;2022-09-12T02:03:21;9.90;;;6.57;;
54263;SDS011;40178;53.042;6.406;2022-09-12T02:05:58;11.98;;;7.65;;
54263;SDS011;40178;53.042;6.406;2022-09-12T02:08:31;14.23;;;9.43;;
54263;SDS011;40178;53.042;6.406;2022-09-12T02:11:08;15.80;;;10.75;;
54263;SDS011;40178;53.042;6.406;2022-09-12T02:13:38;15.10;;;10.52;;
54263;SDS011;40178;53.042;6.406;2022-09-12T02:16:08;15.85;;;10.90;;
54263;SDS011;40178;53.042;6.406;2022-09-12T02:18:39;20.02;;;13.32;;
54263;SDS011;40178;53.042;6.406;2022-09-12T02:21:14;17.02;;;12.05;;
54263;SDS011;40178;53.042;6.406;2022-09-12T02:23:43;20.45;;;14.05;;
54263;SDS011;40178;53.042;6.406;2022-09-12T02:26:20;23.65;;;15.98;;
54263;SDS011;40178;53.042;6.406;2022-09-12T02:28:52;29.17;;;17.48;;
54263;SDS011;40178;53.042;6.406;2022-09-12T02:33:59;26.73;;;17.65;;
54263;SDS011;40178;53.042;6.406;2022-09-12T02:36:44;26.13;;;17.30;;
54263;SDS011;40178;53.042;6.406;2022-09-12T02:39:18;27.02;;;17.42;;
54263;SDS011;40178;53.042;6.406;2022-09-12T02:41:54;24.95;;;16.55;;
54263;SDS011;40178;53.042;6.406;2022-09-12T02:44:23;26.30;;;16.38;;
54263;SDS011;40178;53.042;6.406;2022-09-12T02:46:51;26.17;;;17.80;;
54263;SDS011;40178;53.042;6.406;2022-09-12T02:49:20;30.10;;;20.25;;
54263;SDS011;40178;53.042;6.406;2022-09-12T02:51:46;28.30;;;18.60;;
54263;SDS011;40178;53.042;6.406;2022-09-12T02:54:13;32.17;;;20.85;;
54263;SDS011;40178;53.042;6.406;2022-09-12T02:56:41;32.80;;;20.95;;
54263;SDS011;40178;53.042;6.406;2022-09-12T02:59:09;35.28;;;21.38;;
54263;SDS011;40178;53.042;6.406;2022-09-12T03:13:13;31.85;;;20.25;;
54263;SDS011;40178;53.042;6.406;2022-09-12T03:18:49;33.47;;;19.35;;
54263;SDS011;40178;53.042;6.406;2022-09-12T03:21:26;30.83;;;19.38;;
54263;SDS011;40178;53.042;6.406;2022-09-12T03:23:59;33.45;;;20.80;;
54263;SDS011;40178;53.042;6.406;2022-09-12T03:26:38;32.03;;;18.65;;
54263;SDS011;40178;53.042;6.406;2022-09-12T03:29:12;34.47;;;20.63;;
54263;SDS011;40178;53.042;6.406;2022-09-12T03:31:50;29.85;;;19.75;;
54263;SDS011;40178;53.042;6.406;2022-09-12T03:34:21;34.08;;;20.92;;
54263;SDS011;40178;53.042;6.406;2022-09-12T03:36:48;30.23;;;19.80;;
54263;SDS011;40178;53.042;6.406;2022-09-12T03:39:14;32.92;;;20.17;;
54263;SDS011;40178;53.042;6.406;2022-09-12T03:41:39;34.35;;;20.42;;
54263;SDS011;40178;53.042;6.406;2022-09-12T03:44:05;33.33;;;21.00;;
54263;SDS011;40178;53.042;6.406;2022-09-12T03:46:31;31.80;;;19.95;;
54263;SDS011;40178;53.042;6.406;2022-09-12T03:48:56;31.52;;;19.73;;
54263;SDS011;40178;53.042;6.406;2022-09-12T03:51:22;27.50;;;19.00;;
54263;SDS011;40178;53.042;6.406;2022-09-12T03:53:47;32.20;;;19.85;;
54263;SDS011;40178;53.042;6.406;2022-09-12T03:56:13;33.67;;;20.27;;
54263;SDS011;40178;53.042;6.406;2022-09-12T03:58:39;33.85;;;20.77;;
54263;SDS011;40178;53.042;6.406;2022-09-12T04:01:14;33.53;;;19.40;;
54263;SDS011;40178;53.042;6.406;2022-09-12T04:03:42;33.30;;;19.77;;
54263;SDS011;40178;53.042;6.406;2022-09-12T04:06:10;32.85;;;20.70;;
54263;SDS011;40178;53.042;6.406;2022-09-12T04:08:38;33.60;;;20.80;;
54263;SDS011;40178;53.042;6.406;2022-09-12T04:11:09;32.38;;;20.40;;
54263;SDS011;40178;53.042;6.406;2022-09-12T04:13:36;34.47;;;20.27;;
54263;SDS011;40178;53.042;6.406;2022-09-12T04:16:03;39.40;;;21.70;;
54263;SDS011;40178;53.042;6.406;2022-09-12T04:18:29;36.28;;;21.42;;
54263;SDS011;40178;53.042;6.406;2022-09-12T04:20:55;37.95;;;21.05;;
54263;SDS011;40178;53.042;6.406;2022-09-12T04:23:21;35.58;;;21.17;;
54263;SDS011;40178;53.042;6.406;2022-09-12T04:25:58;35.17;;;20.55;;
54263;SDS011;40178;53.042;6.406;2022-09-12T04:28:25;36.58;;;21.20;;
54263;SDS011;40178;53.042;6.406;2022-09-12T04:30:59;30.05;;;19.38;;
54263;SDS011;40178;53.042;6.406;2022-09-12T04:33:30;33.00;;;20.30;;
54263;SDS011;40178;53.042;6.406;2022-09-12T04:35:55;31.63;;;19.70;;
54263;SDS011;40178;53.042;6.406;2022-09-12T04:38:26;33.15;;;20.40;;
54263;SDS011;40178;53.042;6.406;2022-09-12T04:40:52;31.73;;;19.60;;
54263;SDS011;40178;53.042;6.406;2022-09-12T04:43:18;33.80;;;19.98;;
54263;SDS011;40178;53.042;6.406;2022-09-12T04:45:43;33.42;;;19.23;;
54263;SDS011;40178;53.042;6.406;2022-09-12T04:48:09;34.65;;;19.40;;
54263;SDS011;40178;53.042;6.406;2022-09-12T04:50:34;34.35;;;20.38;;
54263;SDS011;40178;53.042;6.406;2022-09-12T04:53:00;30.92;;;19.23;;
54263;SDS011;40178;53.042;6.406;2022-09-12T04:55:26;32.33;;;19.75;;
54263;SDS011;40178;53.042;6.406;2022-09-12T04:57:51;34.42;;;20.67;;
54263;SDS011;40178;53.042;6.406;2022-09-12T05:00:17;33.55;;;20.10;;
54263;SDS011;40178;53.042;6.406;2022-09-12T05:02:42;34.75;;;20.13;;
54263;SDS011;40178;53.042;6.406;2022-09-12T05:05:08;34.80;;;20.70;;
54263;SDS011;40178;53.042;6.406;2022-09-12T05:07:35;30.92;;;19.25;;
54263;SDS011;40178;53.042;6.406;2022-09-12T05:10:01;36.35;;;19.90;;
54263;SDS011;40178;53.042;6.406;2022-09-12T05:12:28;31.15;;;18.85;;
54263;SDS011;40178;53.042;6.406;2022-09-12T05:14:55;36.20;;;21.00;;
54263;SDS011;40178;53.042;6.406;2022-09-12T05:17:20;35.97;;;20.88;;
54263;SDS011;40178;53.042;6.406;2022-09-12T05:19:46;32.88;;;20.58;;
54263;SDS011;40178;53.042;6.406;2022-09-12T05:22:12;35.92;;;20.10;;
54263;SDS011;40178;53.042;6.406;2022-09-12T05:24:38;35.30;;;20.13;;
54263;SDS011;40178;53.042;6.406;2022-09-12T05:27:06;36.55;;;20.88;;
54263;SDS011;40178;53.042;6.406;2022-09-12T05:29:32;36.80;;;20.98;;
54263;SDS011;40178;53.042;6.406;2022-09-12T05:31:58;36.85;;;20.70;;
54263;SDS011;40178;53.042;6.406;2022-09-12T05:34:23;34.72;;;20.30;;
54263;SDS011;40178;53.042;6.406;2022-09-12T05:36:49;36.67;;;21.52;;
54263;SDS011;40178;53.042;6.406;2022-09-12T05:39:14;36.42;;;20.25;;
54263;SDS011;40178;53.042;6.406;2022-09-12T05:41:40;36.08;;;21.10;;
54263;SDS011;40178;53.042;6.406;2022-09-12T05:44:06;42.28;;;22.30;;
54263;SDS011;40178;53.042;6.406;2022-09-12T05:46:37;41.13;;;22.85;;
54263;SDS011;40178;53.042;6.406;2022-09-12T05:49:08;41.42;;;22.67;;
54263;SDS011;40178;53.042;6.406;2022-09-12T05:51:39;42.95;;;24.20;;
54263;SDS011;40178;53.042;6.406;2022-09-12T05:54:07;45.08;;;24.77;;
54263;SDS011;40178;53.042;6.406;2022-09-12T05:56:36;38.22;;;21.50;;
54263;SDS011;40178;53.042;6.406;2022-09-12T05:59:04;48.92;;;24.73;;
54263;SDS011;40178;53.042;6.406;2022-09-12T06:01:32;42.25;;;24.13;;
54263;SDS011;40178;53.042;6.406;2022-09-12T06:03:59;43.10;;;23.52;;
54263;SDS011;40178;53.042;6.406;2022-09-12T06:06:26;43.63;;;21.95;;
54263;SDS011;40178;53.042;6.406;2022-09-12T06:08:58;42.38;;;23.10;;
54263;SDS011;40178;53.042;6.406;2022-09-12T06:11:26;43.35;;;23.98;;
54263;SDS011;40178;53.042;6.406;2022-09-12T06:13:54;41.95;;;24.40;;
54263;SDS011;40178;53.042;6.406;2022-09-12T06:16:22;41.58;;;23.92;;
54263;SDS011;40178;53.042;6.406;2022-09-12T06:18:58;42.17;;;24.13;;
54263;SDS011;40178;53.042;6.406;2022-09-12T06:21:26;40.38;;;23.23;;
54263;SDS011;40178;53.042;6.406;2022-09-12T06:23:52;46.55;;;24.73;;
54263;SDS011;40178;53.042;6.406;2022-09-12T06:26:19;45.53;;;23.83;;
54263;SDS011;40178;53.042;6.406;2022-09-12T06:28:45;46.97;;;25.52;;
54263;SDS011;40178;53.042;6.406;2022-09-12T06:31:15;43.22;;;22.48;;
54263;SDS011;40178;53.042;6.406;2022-09-12T06:33:44;41.85;;;23.67;;
54263;SDS011;40178;53.042;6.406;2022-09-12T06:36:19;43.47;;;24.20;;
54263;SDS011;40178;53.042;6.406;2022-09-12T06:38:52;45.88;;;25.05;;
54263;SDS011;40178;53.042;6.406;2022-09-12T06:41:18;45.17;;;24.52;;
54263;SDS011;40178;53.042;6.406;2022-09-12T06:43:44;49.67;;;25.85;;
54263;SDS011;40178;53.042;6.406;2022-09-12T06:46:10;45.25;;;26.10;;
54263;SDS011;40178;53.042;6.406;2022-09-12T06:48:37;48.53;;;26.10;;
54263;SDS011;40178;53.042;6.406;2022-09-12T06:51:04;49.25;;;24.80;;
54263;SDS011;40178;53.042;6.406;2022-09-12T06:53:33;52.55;;;27.63;;
54263;SDS011;40178;53.042;6.406;2022-09-12T06:56:03;51.67;;;26.27;;
54263;SDS011;40178;53.042;6.406;2022-09-12T06:58:31;52.72;;;26.02;;
54263;SDS011;40178;53.042;6.406;2022-09-12T07:01:04;45.83;;;26.70;;
54263;SDS011;40178;53.042;6.406;2022-09-12T07:03:32;53.85;;;28.02;;
54263;SDS011;40178;53.042;6.406;2022-09-12T07:06:05;53.25;;;26.73;;
54263;SDS011;40178;53.042;6.406;2022-09-12T07:08:33;54.65;;;27.70;;
54263;SDS011;40178;53.042;6.406;2022-09-12T07:11:23;55.60;;;29.42;;
54263;SDS011;40178;53.042;6.406;2022-09-12T07:13:49;51.92;;;28.92;;
54263;SDS011;40178;53.042;6.406;2022-09-12T07:16:17;58.78;;;28.52;;
54263;SDS011;40178;53.042;6.406;2022-09-12T07:18:43;59.10;;;28.63;;
54263;SDS011;40178;53.042;6.406;2022-09-12T07:21:11;57.38;;;29.38;;
54263;SDS011;40178;53.042;6.406;2022-09-12T07:23:38;59.22;;;30.42;;
54263;SDS011;40178;53.042;6.406;2022-09-12T07:26:05;55.65;;;28.90;;
54263;SDS011;40178;53.042;6.406;2022-09-12T07:28:32;54.22;;;29.77;;
54263;SDS011;40178;53.042;6.406;2022-09-12T07:31:31;57.38;;;30.50;;
54263;SDS011;40178;53.042;6.406;2022-09-12T07:33:51;59.25;;;30.92;;
54263;SDS011;40178;53.042;6.406;2022-09-12T07:36:18;56.58;;;30.25;;
54263;SDS011;40178;53.042;6.406;2022-09-12T07:38:45;53.65;;;30.02;;
54263;SDS011;40178;53.042;6.406;2022-09-12T07:41:15;58.65;;;29.67;;
54263;SDS011;40178;53.042;6.406;2022-09-12T07:43:43;58.47;;;30.63;;
54263;SDS011;40178;53.042;6.406;2022-09-12T07:46:09;57.50;;;29.88;;
54263;SDS011;40178;53.042;6.406;2022-09-12T07:48:35;58.15;;;30.38;;
54263;SDS011;40178;53.042;6.406;2022-09-12T07:51:03;56.28;;;29.92;;
54263;SDS011;40178;53.042;6.406;2022-09-12T07:53:32;58.38;;;29.52;;
54263;SDS011;40178;53.042;6.406;2022-09-12T07:56:00;54.53;;;29.70;;
54263;SDS011;40178;53.042;6.406;2022-09-12T07:58:28;54.95;;;28.90;;
54263;SDS011;40178;53.042;6.406;2022-09-12T08:01:00;54.20;;;28.05;;
54263;SDS011;40178;53.042;6.406;2022-09-12T08:03:29;52.58;;;28.98;;
54263;SDS011;40178;53.042;6.406;2022-09-12T08:06:01;49.58;;;29.35;;
54263;SDS011;40178;53.042;6.406;2022-09-12T08:08:28;48.03;;;28.23;;
54263;SDS011;40178;53.042;6.406;2022-09-12T08:10:57;50.00;;;28.20;;
54263;SDS011;40178;53.042;6.406;2022-09-12T08:13:24;52.10;;;28.40;;
54263;SDS011;40178;53.042;6.406;2022-09-12T08:15:55;54.15;;;28.23;;
54263;SDS011;40178;53.042;6.406;2022-09-12T08:18:21;51.55;;;28.60;;
54263;SDS011;40178;53.042;6.406;2022-09-12T08:20:47;51.85;;;28.80;;
54263;SDS011;40178;53.042;6.406;2022-09-12T08:23:12;52.17;;;27.48;;
54263;SDS011;40178;53.042;6.406;2022-09-12T08:25:38;51.65;;;27.92;;
54263;SDS011;40178;53.042;6.406;2022-09-12T08:28:03;48.03;;;25.98;;
54263;SDS011;40178;53.042;6.406;2022-09-12T08:30:29;48.45;;;27.77;;
54263;SDS011;40178;53.042;6.406;2022-09-12T08:32:54;48.20;;;28.42;;
54263;SDS011;40178;53.042;6.406;2022-09-12T08:35:20;55.28;;;27.60;;
54263;SDS011;40178;53.042;6.406;2022-09-12T08:37:45;46.10;;;26.98;;
54263;SDS011;40178;53.042;6.406;2022-09-12T08:40:14;52.95;;;28.33;;
54263;SDS011;40178;53.042;6.406;2022-09-12T08:45:37;48.72;;;27.25;;
54263;SDS011;40178;53.042;6.406;2022-09-12T08:48:11;47.40;;;25.83;;
54263;SDS011;40178;53.042;6.406;2022-09-12T08:50:38;49.05;;;26.67;;
54263;SDS011;40178;53.042;6.406;2022-09-12T08:53:12;51.10;;;25.80;;
54263;SDS011;40178;53.042;6.406;2022-09-12T08:55:45;50.10;;;27.98;;
54263;SDS011;40178;53.042;6.406;2022-09-12T08:58:21;45.95;;;25.98;;
54263;SDS011;40178;53.042;6.406;2022-09-12T09:01:12;49.35;;;25.00;;
54263;SDS011;40178;53.042;6.406;2022-09-12T09:06:24;46.25;;;25.52;;
54263;SDS011;40178;53.042;6.406;2022-09-12T09:09:19;44.72;;;25.27;;
54263;SDS011;40178;53.042;6.406;2022-09-12T09:12:03;53.40;;;25.67;;
54263;SDS011;40178;53.042;6.406;2022-09-12T09:20:44;49.67;;;26.02;;
54263;SDS011;40178;53.042;6.406;2022-09-12T09:23:27;49.75;;;26.92;;
54263;SDS011;40178;53.042;6.406;2022-09-12T09:28:41;47.17;;;25.20;;
54263;SDS011;40178;53.042;6.406;2022-09-12T09:31:56;45.40;;;25.75;;
54263;SDS011;40178;53.042;6.406;2022-09-12T09:34:05;45.70;;;24.45;;
54263;SDS011;40178;53.042;6.406;2022-09-12T09:44:56;45.13;;;25.02;;
54263;SDS011;40178;53.042;6.406;2022-09-12T09:47:24;44.65;;;23.42;;
54263;SDS011;40178;53.042;6.406;2022-09-12T09:49:50;46.30;;;24.67;;
54263;SDS011;40178;53.042;6.406;2022-09-12T09:52:16;47.30;;;24.90;;
54263;SDS011;40178;53.042;6.406;2022-09-12T09:54:57;46.50;;;24.58;;
54263;SDS011;40178;53.042;6.406;2022-09-12T10:05:49;39.55;;;21.10;;
54263;SDS011;40178;53.042;6.406;2022-09-12T10:10:53;38.28;;;19.45;;
54263;SDS011;40178;53.042;6.406;2022-09-12T10:13:24;38.80;;;19.35;;
54263;SDS011;40178;53.042;6.406;2022-09-12T10:16:02;40.03;;;20.02;;
54263;SDS011;40178;53.042;6.406;2022-09-12T10:18:43;37.58;;;19.27;;
54263;SDS011;40178;53.042;6.406;2022-09-12T10:21:17;34.03;;;17.25;;
54263;SDS011;40178;53.042;6.406;2022-09-12T10:24:04;29.67;;;15.30;;
54263;SDS011;40178;53.042;6.406;2022-09-12T10:26:50;33.20;;;16.07;;
54263;SDS011;40178;53.042;6.406;2022-09-12T10:29:22;32.90;;;17.98;;
54263;SDS011;40178;53.042;6.406;2022-09-12T10:31:52;31.73;;;15.77;;
54263;SDS011;40178;53.042;6.406;2022-09-12T10:34:23;28.92;;;15.00;;
54263;SDS011;40178;53.042;6.406;2022-09-12T10:37:06;24.23;;;13.65;;
54263;SDS011;40178;53.042;6.406;2022-09-12T10:39:34;29.70;;;15.30;;
54263;SDS011;40178;53.042;6.406;2022-09-12T10:42:02;24.52;;;14.38;;
54263;SDS011;40178;53.042;6.406;2022-09-12T10:44:30;24.67;;;13.00;;
54263;SDS011;40178;53.042;6.406;2022-09-12T10:46:58;23.10;;;11.80;;
54263;SDS011;40178;53.042;6.406;2022-09-12T10:49:43;20.63;;;12.10;;
54263;SDS011;40178;53.042;6.406;2022-09-12T10:52:16;18.48;;;9.68;;
54263;SDS011;40178;53.042;6.406;2022-09-12T10:54:47;21.92;;;11.50;;
54263;SDS011;40178;53.042;6.406;2022-09-12T11:08:08;17.65;;;10.65;;
54263;SDS011;40178;53.042;6.406;2022-09-12T11:10:54;13.75;;;8.20;;
54263;SDS011;40178;53.042;6.406;2022-09-12T11:13:48;13.60;;;7.33;;
54263;SDS011;40178;53.042;6.406;2022-09-12T11:19:30;14.98;;;8.63;;
54263;SDS011;40178;53.042;6.406;2022-09-12T11:30:33;12.48;;;6.38;;
54263;SDS011;40178;53.042;6.406;2022-09-12T11:36:03;10.60;;;6.57;;
54263;SDS011;40178;53.042;6.406;2022-09-12T11:38:50;12.80;;;6.68;;
54263;SDS011;40178;53.042;6.406;2022-09-12T11:41:27;11.27;;;5.43;;
54263;SDS011;40178;53.042;6.406;2022-09-12T11:44:02;11.52;;;5.90;;
54263;SDS011;40178;53.042;6.406;2022-09-12T11:46:42;10.85;;;6.05;;
54263;SDS011;40178;53.042;6.406;2022-09-12T11:52:03;13.50;;;6.78;;
54263;SDS011;40178;53.042;6.406;2022-09-12T11:57:44;13.73;;;7.05;;
54263;SDS011;40178;53.042;6.406;2022-09-12T12:00:25;11.05;;;5.93;;
54263;SDS011;40178;53.042;6.406;2022-09-12T12:03:03;14.63;;;7.32;;
54263;SDS011;40178;53.042;6.406;2022-09-12T12:05:53;12.75;;;6.07;;
54263;SDS011;40178;53.042;6.406;2022-09-12T12:08:24;11.52;;;6.50;;
54263;SDS011;40178;53.042;6.406;2022-09-12T12:10:53;9.10;;;5.18;;
54263;SDS011;40178;53.042;6.406;2022-09-12T12:18:28;7.97;;;4.45;;
54263;SDS011;40178;53.042;6.406;2022-09-12T12:20:55;9.75;;;4.18;;
54263;SDS011;40178;53.042;6.406;2022-09-12T12:29:04;8.75;;;4.50;;
54263;SDS011;40178;53.042;6.406;2022-09-12T12:34:35;9.73;;;5.28;;
54263;SDS011;40178;53.042;6.406;2022-09-12T12:44:57;12.18;;;6.43;;
54263;SDS011;40178;53.042;6.406;2022-09-12T12:47:24;11.68;;;6.97;;
54263;SDS011;40178;53.042;6.406;2022-09-12T12:49:52;10.50;;;5.20;;
54263;SDS011;40178;53.042;6.406;2022-09-12T12:52:24;9.57;;;5.05;;
54263;SDS011;40178;53.042;6.406;2022-09-12T12:54:55;9.15;;;4.47;;
54263;SDS011;40178;53.042;6.406;2022-09-12T13:00:25;7.50;;;3.63;;
54263;SDS011;40178;53.042;6.406;2022-09-12T13:05:38;7.63;;;4.15;;
54263;SDS011;40178;53.042;6.406;2022-09-12T13:10:47;7.53;;;2.67;;
54263;SDS011;40178;53.042;6.406;2022-09-12T13:13:22;8.02;;;3.10;;
54263;SDS011;40178;53.042;6.406;2022-09-12T13:15:52;10.15;;;4.18;;
54263;SDS011;40178;53.042;6.406;2022-09-12T13:18:25;8.45;;;3.78;;
54263;SDS011;40178;53.042;6.406;2022-09-12T13:23:29;8.75;;;4.07;;
54263;SDS011;40178;53.042;6.406;2022-09-12T13:25:57;8.55;;;3.78;;
54263;SDS011;40178;53.042;6.406;2022-09-12T13:28:25;8.82;;;3.95;;
54263;SDS011;40178;53.042;6.406;2022-09-12T13:31:06;7.70;;;3.88;;
54263;SDS011;40178;53.042;6.406;2022-09-12T13:33:50;8.63;;;4.00;;
54263;SDS011;40178;53.042;6.406;2022-09-12T13:39:19;10.20;;;4.47;;
54263;SDS011;40178;53.042;6.406;2022-09-12T13:42:07;8.63;;;3.97;;
54263;SDS011;40178;53.042;6.406;2022-09-12T13:50:13;7.43;;;3.75;;
54263;SDS011;40178;53.042;6.406;2022-09-12T13:52:54;8.50;;;4.55;;
54263;SDS011;40178;53.042;6.406;2022-09-12T13:55:26;8.27;;;4.60;;
54263;SDS011;40178;53.042;6.406;2022-09-12T13:58:02;9.88;;;4.60;;
54263;SDS011;40178;53.042;6.406;2022-09-12T14:00:45;11.65;;;4.28;;
54263;SDS011;40178;53.042;6.406;2022-09-12T14:03:30;10.00;;;4.65;;
54263;SDS011;40178;53.042;6.406;2022-09-12T14:06:16;7.80;;;3.97;;
54263;SDS011;40178;53.042;6.406;2022-09-12T14:08:44;7.15;;;3.75;;
54263;SDS011;40178;53.042;6.406;2022-09-12T14:11:11;10.48;;;4.25;;
54263;SDS011;40178;53.042;6.406;2022-09-12T14:13:55;10.40;;;5.20;;
54263;SDS011;40178;53.042;6.406;2022-09-12T14:16:21;9.82;;;5.68;;
54263;SDS011;40178;53.042;6.406;2022-09-12T14:18:48;10.20;;;5.68;;
54263;SDS011;40178;53.042;6.406;2022-09-12T14:23:54;11.98;;;6.45;;
54263;SDS011;40178;53.042;6.406;2022-09-12T14:26:21;10.82;;;5.63;;
54263;SDS011;40178;53.042;6.406;2022-09-12T14:28:48;10.25;;;5.70;;
54263;SDS011;40178;53.042;6.406;2022-09-12T14:31:20;11.15;;;6.70;;
54263;SDS011;40178;53.042;6.406;2022-09-12T14:33:48;10.82;;;6.13;;
54263;SDS011;40178;53.042;6.406;2022-09-12T14:36:16;11.98;;;6.53;;
54263;SDS011;40178;53.042;6.406;2022-09-12T14:39:01;10.93;;;6.82;;
54263;SDS011;40178;53.042;6.406;2022-09-12T14:41:35;13.20;;;7.25;;
54263;SDS011;40178;53.042;6.406;2022-09-12T14:44:05;10.32;;;5.88;;
54263;SDS011;40178;53.042;6.406;2022-09-12T14:46:40;10.50;;;6.80;;
54263;SDS011;40178;53.042;6.406;2022-09-12T14:56:55;10.63;;;6.03;;
54263;SDS011;40178;53.042;6.406;2022-09-12T15:04:49;9.48;;;6.22;;
54263;SDS011;40178;53.042;6.406;2022-09-12T15:10:00;10.95;;;5.93;;
54263;SDS011;40178;53.042;6.406;2022-09-12T15:12:28;10.73;;;5.30;;
54263;SDS011;40178;53.042;6.406;2022-09-12T15:14:58;9.23;;;5.32;;
54263;SDS011;40178;53.042;6.406;2022-09-12T15:17:31;11.18;;;6.15;;
54263;SDS011;40178;53.042;6.406;2022-09-12T15:19:57;11.10;;;5.47;;
54263;SDS011;40178;53.042;6.406;2022-09-12T15:22:22;8.45;;;4.88;;
54263;SDS011;40178;53.042;6.406;2022-09-12T15:24:50;9.85;;;5.60;;
54263;SDS011;40178;53.042;6.406;2022-09-12T15:27:15;9.77;;;5.28;;
54263;SDS011;40178;53.042;6.406;2022-09-12T15:29:42;9.05;;;6.20;;
54263;SDS011;40178;53.042;6.406;2022-09-12T15:32:10;8.50;;;5.28;;
54263;SDS011;40178;53.042;6.406;2022-09-12T15:34:38;9.35;;;5.03;;
54263;SDS011;40178;53.042;6.406;2022-09-12T15:37:08;7.60;;;4.50;;
54263;SDS011;40178;53.042;6.406;2022-09-12T15:39:37;7.22;;;4.32;;
54263;SDS011;40178;53.042;6.406;2022-09-12T15:42:03;8.32;;;4.65;;
54263;SDS011;40178;53.042;6.406;2022-09-12T15:44:29;7.93;;;4.43;;
54263;SDS011;40178;53.042;6.406;2022-09-12T15:46:54;7.45;;;4.10;;
54263;SDS011;40178;53.042;6.406;2022-09-12T15:49:20;6.85;;;3.78;;
54263;SDS011;40178;53.042;6.406;2022-09-12T15:51:46;10.93;;;4.18;;
54263;SDS011;40178;53.042;6.406;2022-09-12T15:54:11;6.72;;;3.80;;
54263;SDS011;40178;53.042;6.406;2022-09-12T15:56:39;7.97;;;3.25;;
54263;SDS011;40178;53.042;6.406;2022-09-12T15:59:04;6.93;;;3.80;;
54263;SDS011;40178;53.042;6.406;2022-09-12T16:01:30;6.25;;;3.72;;
54263;SDS011;40178;53.042;6.406;2022-09-12T16:03:56;8.32;;;3.70;;
54263;SDS011;40178;53.042;6.406;2022-09-12T16:06:22;7.30;;;3.42;;
54263;SDS011;40178;53.042;6.406;2022-09-12T16:08:47;6.07;;;3.47;;
54263;SDS011;40178;53.042;6.406;2022-09-12T16:11:17;6.75;;;3.70;;
54263;SDS011;40178;53.042;6.406;2022-09-12T16:13:45;5.68;;;3.13;;
54263;SDS011;40178;53.042;6.406;2022-09-12T16:16:11;5.88;;;2.83;;
54263;SDS011;40178;53.042;6.406;2022-09-12T16:18:39;5.38;;;3.20;;
54263;SDS011;40178;53.042;6.406;2022-09-12T16:21:05;5.38;;;3.03;;
54263;SDS011;40178;53.042;6.406;2022-09-12T16:23:31;5.00;;;3.13;;
54263;SDS011;40178;53.042;6.406;2022-09-12T16:28:22;6.75;;;3.05;;
54263;SDS011;40178;53.042;6.406;2022-09-12T16:30:54;5.63;;;2.97;;
54263;SDS011;40178;53.042;6.406;2022-09-12T16:33:25;6.35;;;3.13;;
54263;SDS011;40178;53.042;6.406;2022-09-12T16:35:51;7.32;;;3.42;;
54263;SDS011;40178;53.042;6.406;2022-09-12T16:38:20;6.60;;;3.00;;
54263;SDS011;40178;53.042;6.406;2022-09-12T16:40:46;5.47;;;2.75;;
54263;SDS011;40178;53.042;6.406;2022-09-12T16:43:11;5.97;;;3.00;;
54263;SDS011;40178;53.042;6.406;2022-09-12T16:45:41;5.97;;;3.17;;
54263;SDS011;40178;53.042;6.406;2022-09-12T16:48:07;8.20;;;3.35;;
54263;SDS011;40178;53.042;6.406;2022-09-12T16:50:33;5.45;;;3.17;;
54263;SDS011;40178;53.042;6.406;2022-09-12T16:52:58;5.60;;;3.25;;
54263;SDS011;40178;53.042;6.406;2022-09-12T16:55:24;5.75;;;3.13;;
54263;SDS011;40178;53.042;6.406;2022-09-12T16:57:52;4.97;;;2.92;;
54263;SDS011;40178;53.042;6.406;2022-09-12T17:00:19;7.38;;;3.08;;
54263;SDS011;40178;53.042;6.406;2022-09-12T17:02:44;6.53;;;3.10;;
54263;SDS011;40178;53.042;6.406;2022-09-12T17:05:11;6.32;;;3.30;;
54263;SDS011;40178;53.042;6.406;2022-09-12T17:07:39;5.53;;;2.90;;
54263;SDS011;40178;53.042;6.406;2022-09-12T17:10:05;5.53;;;3.17;;
54263;SDS011;40178;53.042;6.406;2022-09-12T17:12:31;7.35;;;3.38;;
54263;SDS011;40178;53.042;6.406;2022-09-12T17:14:57;5.88;;;2.80;;
54263;SDS011;40178;53.042;6.406;2022-09-12T17:17:22;5.53;;;3.35;;
54263;SDS011;40178;53.042;6.406;2022-09-12T17:19:48;5.50;;;2.70;;
54263;SDS011;40178;53.042;6.406;2022-09-12T17:22:14;6.30;;;2.90;;
54263;SDS011;40178;53.042;6.406;2022-09-12T17:24:39;5.10;;;2.90;;
54263;SDS011;40178;53.042;6.406;2022-09-12T17:27:05;5.97;;;3.20;;